Time;durP1;ratioP1;P1;durP2;ratioP2;P2;SDS_P1;SDS_P2;PMS_P1;PMS_P2;Temp;Humidity;BMP_temperature;BMP_pressure;BME280_temperature;BME280_humidity;BME280_pressure;Samples;Min_cycle;Max_cycle;Signal;HPM_P1;HPM_P2
2023/04/20 00:02:26;;;;;;;11.88;9.05;;;;;;;6.43;100.00;101559.97;4898697;29;20208;-71
2023/04/20 00:04:55;;;;;;;13.27;9.10;;;;;;;6.30;100.00;101570.28;4901557;29;20202;-68
2023/04/20 00:07:26;;;;;;;11.63;9.65;;;;;;;6.08;100.00;101565.41;4889177;29;20216;-71
2023/04/20 00:09:55;;;;;;;11.90;8.20;;;;;;;5.89;100.00;101566.47;4881669;29;20309;-68
2023/04/20 00:12:25;;;;;;;10.20;7.97;;;;;;;6.25;100.00;101567.22;4879998;29;20206;-70
2023/04/20 00:14:54;;;;;;;12.80;8.00;;;;;;;6.00;100.00;101562.69;4880101;29;20215;-69
2023/04/20 00:17:23;;;;;;;10.32;7.60;;;;;;;6.15;100.00;101554.91;4882287;29;20194;-71
2023/04/20 00:19:52;;;;;;;12.32;7.82;;;;;;;6.35;100.00;101557.19;4879047;29;20309;-69
2023/04/20 00:22:21;;;;;;;13.18;7.95;;;;;;;6.39;100.00;101553.19;4880780;29;20217;-72
2023/04/20 00:24:50;;;;;;;9.68;8.15;;;;;;;6.13;100.00;101556.88;4889672;29;20189;-72
2023/04/20 00:27:19;;;;;;;10.18;7.13;;;;;;;6.12;100.00;101564.09;4879234;29;20760;-70
2023/04/20 00:29:49;;;;;;;9.75;8.15;;;;;;;6.02;100.00;101557.97;4880542;29;20224;-71
2023/04/20 00:32:18;;;;;;;8.35;6.70;;;;;;;6.10;100.00;101566.09;4885596;29;20202;-70
2023/04/20 00:34:49;;;;;;;11.85;8.60;;;;;;;5.97;100.00;101552.22;4903218;29;20739;-70
2023/04/20 00:37:29;;;;;;;7.88;6.07;;;;;;;6.38;100.00;101556.91;4874390;29;20198;-71
2023/04/20 00:39:58;;;;;;;9.10;6.55;;;;;;;6.25;100.00;101556.47;4882565;29;20227;-71
2023/04/20 00:42:27;;;;;;;7.68;6.60;;;;;;;6.20;100.00;101558.78;4885382;29;20190;-71
2023/04/20 00:44:58;;;;;;;8.48;7.10;;;;;;;6.04;100.00;101556.00;4882726;29;20254;-72
2023/04/20 00:47:27;;;;;;;8.07;6.38;;;;;;;5.96;100.00;101553.22;4887455;29;20209;-70
2023/04/20 00:49:56;;;;;;;8.75;6.57;;;;;;;5.91;100.00;101548.31;4887074;29;20581;-70
2023/04/20 00:52:25;;;;;;;9.00;8.07;;;;;;;5.98;100.00;101548.53;4886265;29;20213;-69
2023/04/20 00:54:54;;;;;;;10.50;7.43;;;;;;;5.90;100.00;101545.81;4885351;29;20225;-68
2023/04/20 00:57:24;;;;;;;10.90;7.25;;;;;;;5.90;100.00;101545.81;4883254;29;20277;-70
2023/04/20 00:59:53;;;;;;;8.32;6.30;;;;;;;6.23;100.00;101547.72;4899529;29;20220;-69
2023/04/20 01:02:24;;;;;;;10.73;6.85;;;;;;;5.98;100.00;101549.41;4886204;29;20221;-71
2023/04/20 01:04:55;;;;;;;7.60;6.28;;;;;;;5.98;100.00;101543.19;4895571;29;20245;-68
2023/04/20 01:07:24;;;;;;;8.75;6.70;;;;;;;6.07;100.00;101544.91;4888756;29;20198;-70
2023/04/20 01:09:53;;;;;;;10.43;6.85;;;;;;;6.01;100.00;101553.59;4886314;29;20216;-69
2023/04/20 01:12:22;;;;;;;10.48;7.28;;;;;;;6.05;100.00;101552.31;4893743;29;20209;-72
2023/04/20 01:14:51;;;;;;;9.05;7.40;;;;;;;6.00;100.00;101552.75;4890040;29;20221;-71
2023/04/20 01:17:22;;;;;;;10.27;7.97;;;;;;;6.24;100.00;101538.66;4887311;29;20213;-70
2023/04/20 01:19:53;;;;;;;10.40;7.93;;;;;;;6.19;100.00;101540.16;4884037;29;20211;-72
2023/04/20 01:22:23;;;;;;;10.77;7.03;;;;;;;6.28;100.00;101548.09;4892501;29;20210;-71
2023/04/20 01:24:53;;;;;;;9.88;7.18;;;;;;;6.39;100.00;101537.06;4893441;29;20609;-72
2023/04/20 01:27:22;;;;;;;9.85;7.38;;;;;;;6.18;100.00;101541.97;4897756;29;20202;-71
2023/04/20 01:29:51;;;;;;;13.93;8.27;;;;;;;6.03;100.00;101546.25;4899630;29;20245;-70
2023/04/20 01:32:20;;;;;;;10.50;8.27;;;;;;;5.98;100.00;101535.13;4895555;29;20207;-71
2023/04/20 01:34:50;;;;;;;9.63;7.55;;;;;;;6.00;100.00;101541.19;4901827;29;20236;-70
2023/04/20 01:37:19;;;;;;;11.80;8.02;;;;;;;5.95;100.00;101540.81;4903712;29;20199;-71
2023/04/20 01:39:49;;;;;;;12.00;8.68;;;;;;;6.00;100.00;101530.44;4897419;29;20229;-70
2023/04/20 01:42:21;;;;;;;12.98;8.85;;;;;;;6.04;100.00;101543.41;4912801;29;20669;-70
2023/04/20 01:44:50;;;;;;;10.07;8.60;;;;;;;5.99;100.00;101534.13;4891770;29;20204;-69
2023/04/20 01:47:19;;;;;;;10.57;7.43;;;;;;;6.26;100.00;101536.66;4893834;29;20208;-71
2023/04/20 01:49:48;;;;;;;11.20;7.95;;;;;;;6.12;100.00;101534.53;4903813;29;20232;-70
2023/04/20 01:52:18;;;;;;;10.23;8.10;;;;;;;6.02;100.00;101528.41;4897925;29;20194;-71
2023/04/20 01:54:50;;;;;;;8.95;8.05;;;;;;;6.05;100.00;101526.25;4890259;29;20197;-70
2023/04/20 01:57:19;;;;;;;9.02;8.05;;;;;;;6.07;100.00;101531.47;4894227;29;20197;-70
2023/04/20 01:59:49;;;;;;;12.98;9.05;;;;;;;6.07;100.00;101526.09;4903997;29;20222;-70
2023/04/20 02:02:18;;;;;;;10.88;7.43;;;;;;;6.09;100.00;101521.44;4888579;29;20692;-71
2023/04/20 02:04:47;;;;;;;9.93;7.63;;;;;;;6.21;100.00;101522.00;4900697;29;20259;-71
2023/04/20 02:07:16;;;;;;;11.63;8.60;;;;;;;6.08;100.00;101533.19;4890587;29;20202;-71
2023/04/20 02:09:46;;;;;;;9.50;8.52;;;;;;;6.02;100.00;101523.91;4885359;29;20238;-71
2023/04/20 02:12:16;;;;;;;10.80;8.10;;;;;;;6.07;100.00;101528.78;4888418;29;20198;-71
2023/04/20 02:14:45;;;;;;;11.48;8.98;;;;;;;6.07;100.00;101526.09;4909187;29;20299;-71
2023/04/20 02:17:15;;;;;;;10.75;8.57;;;;;;;6.10;100.00;101525.78;4885234;29;20205;-71
2023/04/20 02:19:45;;;;;;;14.20;9.40;;;;;;;6.08;100.00;101525.13;4903706;29;20769;-70
2023/04/20 02:22:15;;;;;;;13.65;11.07;;;;;;;6.02;100.00;101526.59;4882367;29;20213;-69
2023/04/20 02:24:44;;;;;;;11.25;7.88;;;;;;;6.05;100.00;101536.19;4885968;29;20229;-70
2023/04/20 02:27:16;;;;;;;11.00;9.80;;;;;;;6.24;100.00;101533.28;4883481;29;20685;-69
2023/04/20 02:29:45;;;;;;;12.30;9.88;;;;;;;6.16;100.00;101538.59;4884770;29;20270;-70
2023/04/20 02:32:15;;;;;;;13.43;9.48;;;;;;;6.29;100.00;101548.94;4893334;29;20626;-70
2023/04/20 02:34:45;;;;;;;12.15;10.05;;;;;;;6.24;100.00;101532.44;4897527;29;20218;-70
2023/04/20 02:37:14;;;;;;;15.38;9.50;;;;;;;6.50;100.00;101534.09;4885641;29;20222;-71
2023/04/20 02:39:43;;;;;;;15.77;10.27;;;;;;;6.46;100.00;101532.75;4883385;29;20233;-70
2023/04/20 02:42:12;;;;;;;20.38;11.82;;;;;;;6.27;100.00;101537.50;4883167;29;20325;-71
2023/04/20 02:44:44;;;;;;;15.65;10.82;;;;;;;6.38;100.00;101527.31;4887041;29;20758;-70
2023/04/20 02:47:15;;;;;;;12.15;10.82;;;;;;;6.41;100.00;101534.22;4888382;29;20202;-70
2023/04/20 02:49:44;;;;;;;17.70;11.48;;;;;;;6.63;100.00;101527.44;4896957;29;20321;-69
2023/04/20 02:52:14;;;;;;;15.70;10.77;;;;;;;6.45;100.00;101530.19;4886162;29;20289;-70
2023/04/20 02:54:44;;;;;;;14.07;10.75;;;;;;;6.63;100.00;101524.75;4886953;29;20210;-69
2023/04/20 02:57:14;;;;;;;12.23;9.80;;;;;;;6.76;100.00;101535.91;4906559;29;20317;-71
2023/04/20 02:59:44;;;;;;;18.38;13.05;;;;;;;6.67;100.00;101531.50;4897831;29;20228;-70
2023/04/20 03:02:18;;;;;;;16.25;11.57;;;;;;;6.44;100.00;101532.03;4915691;29;20196;-69
2023/04/20 03:04:47;;;;;;;13.70;11.05;;;;;;;6.34;100.00;101528.63;4885716;29;20207;-70
2023/04/20 03:07:20;;;;;;;16.30;11.70;;;;;;;6.30;100.00;101535.31;4878805;29;20205;-70
2023/04/20 03:09:50;;;;;;;17.85;11.63;;;;;;;6.32;100.00;101530.66;4883064;29;20806;-70
2023/04/20 03:12:25;;;;;;;17.88;10.40;;;;;;;6.64;100.00;101531.81;4879714;29;20234;-70
2023/04/20 03:15:20;;;;;;;17.02;11.88;;;;;;;6.47;100.00;101537.13;4884261;29;20210;-71
2023/04/20 03:18:03;;;;;;;18.13;12.57;;;;;;;6.43;100.00;101538.44;4881060;29;20275;-73
2023/04/20 03:20:33;;;;;;;21.75;14.18;;;;;;;6.28;100.00;101537.34;4882424;29;20248;-70
2023/04/20 03:23:02;;;;;;;17.88;13.30;;;;;;;6.25;100.00;101529.59;4888465;29;20217;-72
2023/04/20 03:25:31;;;;;;;16.20;14.40;;;;;;;6.30;100.00;101532.63;4884701;29;20214;-69
2023/04/20 03:28:03;;;;;;;22.00;15.88;;;;;;;6.30;100.00;101537.16;4884720;29;20692;-72
2023/04/20 03:30:34;;;;;;;27.52;17.58;;;;;;;6.30;100.00;101537.16;4881857;29;20256;-72
2023/04/20 03:33:08;;;;;;;33.65;18.35;;;;;;;6.40;100.00;101536.06;4882530;29;20213;-72
2023/04/20 03:35:38;;;;;;;23.52;17.98;;;;;;;6.36;100.00;101540.06;4884431;29;20196;-71
2023/04/20 03:38:07;;;;;;;23.95;18.08;;;;;;;6.25;100.00;101547.53;4899432;29;20209;-71
2023/04/20 03:40:37;;;;;;;26.33;16.83;;;;;;;6.16;100.00;101546.66;4883455;29;20229;-70
2023/04/20 03:43:06;;;;;;;31.48;19.33;;;;;;;6.20;100.00;101553.41;4908560;29;20224;-70
2023/04/20 03:45:37;;;;;;;29.80;20.85;;;;;;;6.14;100.00;101547.84;4884822;29;20263;-70
2023/04/20 03:48:06;;;;;;;29.77;19.20;;;;;;;6.16;100.00;101543.13;4883978;29;20197;-71
2023/04/20 03:50:35;;;;;;;32.28;20.17;;;;;;;6.16;100.00;101546.66;4882006;29;20204;-70
2023/04/20 03:53:05;;;;;;;30.02;18.60;;;;;;;6.15;100.00;101538.78;4884241;29;20576;-70
2023/04/20 03:55:35;;;;;;;32.75;19.52;;;;;;;6.10;100.00;101544.59;4886572;29;20205;-71
2023/04/20 03:58:08;;;;;;;26.63;18.55;;;;;;;6.62;100.00;101542.75;4878783;29;20252;-71
2023/04/20 04:01:05;;;;;;;29.00;19.13;;;;;;;6.42;100.00;101542.13;4888321;29;20237;-69
2023/04/20 04:03:37;;;;;;;29.30;19.27;;;;;;;6.32;100.00;101549.47;4883338;29;20616;-70
2023/04/20 04:06:07;;;;;;;29.90;17.92;;;;;;;6.31;100.00;101550.44;4904920;29;20744;-71
2023/04/20 04:08:36;;;;;;;29.70;19.50;;;;;;;6.24;100.00;101548.56;4888592;29;20397;-70
2023/04/20 04:11:06;;;;;;;32.17;20.55;;;;;;;6.26;100.00;101551.94;4888233;29;20198;-73
2023/04/20 04:13:35;;;;;;;38.50;22.67;;;;;;;6.30;100.00;101547.91;4879102;29;20266;-70
2023/04/20 04:16:08;;;;;;;29.38;19.30;;;;;;;6.21;100.00;101543.50;4894221;29;20212;-69
2023/04/20 04:18:37;;;;;;;39.33;20.73;;;;;;;6.39;100.00;101553.19;4882557;29;20226;-70
2023/04/20 04:21:10;;;;;;;37.60;21.02;;;;;;;6.38;100.00;101551.53;4879341;29;20206;-71
2023/04/20 04:23:43;;;;;;;38.00;21.63;;;;;;;6.38;100.00;101548.84;4927120;23;20664;-68
2023/04/20 04:26:20;;;;;;;30.67;17.70;;;;;;;6.36;100.00;101556.19;4880196;29;20205;-69
2023/04/20 04:28:49;;;;;;;38.65;20.80;;;;;;;6.28;100.00;101561.53;4878251;29;20233;-68
2023/04/20 04:31:22;;;;;;;43.13;21.50;;;;;;;6.25;100.00;101559.16;4882648;29;20218;-68
2023/04/20 04:33:52;;;;;;;36.83;20.55;;;;;;;6.21;100.00;101557.78;4879845;29;20204;-70
2023/04/20 04:36:37;;;;;;;40.72;23.95;;;;;;;6.40;100.00;101560.25;4880305;29;20630;-70
2023/04/20 04:39:08;;;;;;;39.47;22.65;;;;;;;6.43;100.00;101557.28;4880537;29;20592;-70
2023/04/20 04:41:39;;;;;;;41.65;22.30;;;;;;;6.35;100.00;101562.56;4879488;29;20201;-70
2023/04/20 04:44:44;;;;;;;33.83;22.70;;;;;;;6.35;100.00;101567.94;4874184;29;20202;-68
2023/04/20 04:47:20;;;;;;;38.17;22.25;;;;;;;6.35;100.00;101567.09;4878604;29;20236;-67
2023/04/20 04:49:50;;;;;;;54.28;20.45;;;;;;;6.41;100.00;101577.22;4882613;29;20226;-68
2023/04/20 04:52:19;;;;;;;31.95;21.83;;;;;;;6.38;100.00;101572.19;4877061;29;20776;-68
2023/04/20 04:54:48;;;;;;;42.08;23.25;;;;;;;6.46;100.00;101581.13;4887561;29;20236;-70
2023/04/20 04:57:17;;;;;;;33.90;22.95;;;;;;;6.58;100.00;101579.03;4881534;29;20206;-68
2023/04/20 04:59:46;;;;;;;42.15;22.27;;;;;;;6.68;100.00;101578.91;4878588;29;20239;-69
2023/04/20 05:02:16;;;;;;;41.58;22.17;;;;;;;6.79;100.00;101578.59;4875019;29;20201;-70
2023/04/20 05:04:47;;;;;;;41.50;19.92;;;;;;;6.79;100.00;101579.47;4880444;29;20211;-69
2023/04/20 05:07:17;;;;;;;33.75;19.38;;;;;;;6.76;100.00;101579.78;4884018;29;20203;-67
2023/04/20 05:09:46;;;;;;;36.30;20.60;;;;;;;6.73;100.00;101582.78;4876758;29;20279;-68
2023/04/20 05:12:15;;;;;;;27.95;18.40;;;;;;;6.77;100.00;101572.56;4873915;29;20700;-68
2023/04/20 05:14:44;;;;;;;31.58;19.52;;;;;;;6.77;100.00;101573.41;4879517;29;20606;-70
2023/04/20 05:17:13;;;;;;;28.75;17.80;;;;;;;6.71;100.00;101565.13;4876862;29;20238;-69
2023/04/20 05:19:42;;;;;;;35.30;18.02;;;;;;;6.80;100.00;101574.94;4876254;29;20726;-69
2023/04/20 05:22:13;;;;;;;35.38;19.08;;;;;;;6.91;100.00;101574.66;4878653;29;20276;-67
2023/04/20 05:24:42;;;;;;;26.73;18.27;;;;;;;7.12;100.00;101584.97;4880046;29;20216;-70
2023/04/20 05:27:11;;;;;;;25.65;17.75;;;;;;;7.22;100.00;101589.22;4877166;29;20693;-70
2023/04/20 05:29:40;;;;;;;27.52;17.02;;;;;;;7.26;100.00;101587.88;4878299;29;20312;-69
2023/04/20 05:32:09;;;;;;;26.35;17.45;;;;;;;7.26;100.00;101587.88;4877529;29;20256;-67
2023/04/20 05:34:39;;;;;;;29.50;16.88;;;;;;;7.27;100.00;101580.63;4878437;29;20227;-69
2023/04/20 05:37:08;;;;;;;26.83;17.23;;;;;;;7.21;100.00;101581.31;4876821;29;20223;-70
2023/04/20 05:39:39;;;;;;;23.38;16.77;;;;;;;7.15;100.00;101579.28;4875109;29;20294;-70
2023/04/20 05:42:08;;;;;;;24.88;15.90;;;;;;;7.19;100.00;101594.09;4881959;29;20282;-67
2023/04/20 05:44:38;;;;;;;20.65;15.90;;;;;;;7.40;100.00;101589.13;4877923;29;20255;-70
2023/04/20 05:47:07;;;;;;;23.33;16.42;;;;;;;7.43;100.00;101595.00;4878476;29;20204;-68
2023/04/20 05:49:36;;;;;;;31.10;18.65;;;;;;;7.46;100.00;101603.75;4875206;29;20227;-72
2023/04/20 05:52:06;;;;;;;27.85;16.98;;;;;;;7.38;100.00;101616.19;4875810;29;20231;-73
2023/04/20 05:54:35;;;;;;;25.42;15.10;;;;;;;7.34;100.00;101622.91;4886410;29;20353;-71
2023/04/20 05:57:05;;;;;;;28.42;17.30;;;;;;;7.32;100.00;101611.47;4889303;29;20667;-75
2023/04/20 05:59:34;;;;;;;25.15;16.73;;;;;;;7.46;100.00;101617.22;4890982;29;20230;-73
2023/04/20 06:02:04;;;;;;;32.83;18.45;;;;;;;7.28;100.00;101620.88;4878691;29;20219;-70
2023/04/20 06:04:34;;;;;;;22.83;16.38;;;;;;;7.12;100.00;101615.41;4879059;29;20202;-74
2023/04/20 06:07:03;;;;;;;26.45;17.65;;;;;;;7.27;100.00;101607.56;4876448;29;20198;-72
2023/04/20 06:09:35;;;;;;;24.50;17.27;;;;;;;7.34;100.00;101604.06;4873376;29;20279;-71
2023/04/20 06:12:06;;;;;;;30.27;18.92;;;;;;;7.35;100.00;101608.47;4875921;29;20293;-70
2023/04/20 06:14:35;;;;;;;26.67;17.90;;;;;;;7.42;100.00;101619.41;4874388;29;20248;-72
2023/04/20 06:17:04;;;;;;;30.45;18.05;;;;;;;7.58;100.00;101622.13;4881520;29;20302;-72
2023/04/20 06:19:33;;;;;;;30.35;18.02;;;;;;;7.49;100.00;101622.28;4878217;29;20258;-70
2023/04/20 06:22:07;;;;;;;28.98;18.50;;;;;;;7.61;100.00;101618.25;4875415;29;20326;-71
2023/04/20 06:24:37;;;;;;;32.28;20.63;;;;;;;7.74;100.00;101627.56;4876177;29;20229;-71
2023/04/20 06:27:08;;;;;;;26.80;17.83;;;;;;;7.71;100.00;101632.44;4878034;29;20407;-74
2023/04/20 06:29:37;;;;;;;32.67;20.27;;;;;;;7.72;100.00;101631.41;4876810;29;20587;-70
2023/04/20 06:32:06;;;;;;;26.42;17.85;;;;;;;7.78;100.00;101633.47;4878198;29;20207;-71
2023/04/20 06:34:35;;;;;;;24.60;17.92;;;;;;;7.66;100.00;101632.06;4879279;29;20252;-74
2023/04/20 06:37:07;;;;;;;24.30;17.05;;;;;;;7.59;100.00;101641.84;4885471;29;20679;-69
2023/04/20 06:39:36;;;;;;;26.88;17.33;;;;;;;7.52;100.00;101644.34;4883897;29;20602;-70
2023/04/20 06:42:07;;;;;;;27.88;20.02;;;;;;;7.56;100.00;101634.91;4883610;29;20610;-73
2023/04/20 06:44:36;;;;;;;27.58;18.63;;;;;;;7.46;100.00;101639.59;4886917;29;20667;-70
2023/04/20 06:47:06;;;;;;;34.13;20.15;;;;;;;7.50;100.00;101629.38;4881871;29;20658;-71
2023/04/20 06:49:36;;;;;;;24.42;17.45;;;;;;;7.49;100.00;101633.91;4883275;29;20215;-71
2023/04/20 06:52:07;;;;;;;29.02;20.77;;;;;;;7.61;100.00;101631.72;4884792;29;20623;-74
2023/04/20 06:54:36;;;;;;;32.72;20.95;;;;;;;7.76;100.00;101635.47;4889530;29;20220;-70
2023/04/20 06:57:07;;;;;;;29.90;20.00;;;;;;;7.96;100.00;101642.25;4883730;29;20217;-72
2023/04/20 06:59:36;;;;;;;27.60;19.00;;;;;;;8.16;100.00;101643.59;4886697;29;20243;-70
2023/04/20 07:02:05;;;;;;;30.77;22.30;;;;;;;8.36;98.83;101641.44;4886313;29;20208;-71
2023/04/20 07:04:34;;;;;;;24.02;19.52;;;;;;;8.31;98.68;101634.88;4888850;29;20232;-72
2023/04/20 07:07:03;;;;;;;27.75;19.42;;;;;;;8.45;98.11;101628.78;4876890;29;20750;-71
2023/04/20 07:09:33;;;;;;;29.35;19.45;;;;;;;8.57;96.63;101630.09;4876713;29;20234;-70
2023/04/20 07:12:02;;;;;;;24.48;19.15;;;;;;;8.66;96.38;101629.09;4884643;29;20221;-71
2023/04/20 07:14:32;;;;;;;28.55;19.10;;;;;;;8.96;94.81;101617.50;4884122;29;20231;-72
2023/04/20 07:17:01;;;;;;;24.60;19.35;;;;;;;8.92;93.67;101624.28;4883139;29;20212;-74
2023/04/20 07:19:31;;;;;;;26.80;17.85;;;;;;;8.75;93.96;101646.94;4887154;29;20600;-72
2023/04/20 07:22:00;;;;;;;23.58;16.55;;;;;;;8.68;92.65;101645.94;4889128;29;20672;-73
2023/04/20 07:24:29;;;;;;;24.52;16.65;;;;;;;8.58;93.41;101647.97;4886711;29;20214;-72
2023/04/20 07:26:58;;;;;;;20.33;15.90;;;;;;;8.60;93.50;101654.91;4884629;29;20211;-72
2023/04/20 07:29:27;;;;;;;25.27;17.40;;;;;;;8.78;91.82;101651.16;4889675;29;20652;-70
2023/04/20 07:31:58;;;;;;;20.65;17.50;;;;;;;8.94;91.72;101657.34;4884605;29;20207;-72
2023/04/20 07:34:27;;;;;;;21.20;17.20;;;;;;;9.00;89.70;101662.06;4885982;29;20609;-71
2023/04/20 07:36:56;;;;;;;18.40;14.63;;;;;;;8.97;90.73;101665.09;4882451;29;20227;-70
2023/04/20 07:39:27;;;;;;;21.38;16.95;;;;;;;8.85;90.86;101658.41;4883743;29;20236;-72
2023/04/20 07:41:56;;;;;;;20.55;15.98;;;;;;;9.11;90.70;101666.25;4879923;29;20209;-70
2023/04/20 07:44:26;;;;;;;25.63;16.50;;;;;;;9.27;88.43;101657.25;4881192;29;20197;-73
2023/04/20 07:46:56;;;;;;;21.58;15.60;;;;;;;9.34;87.11;101658.22;4878283;29;20283;-71
2023/04/20 07:49:27;;;;;;;20.20;16.58;;;;;;;9.54;87.18;101662.16;4882247;29;20225;-72
2023/04/20 07:51:56;;;;;;;19.30;14.27;;;;;;;9.35;88.00;101676.09;4880107;29;20741;-69
2023/04/20 07:54:43;;;;;;;24.23;16.60;;;;;;;9.33;89.74;101662.78;4881488;29;20673;-72
2023/04/20 07:57:12;;;;;;;21.60;15.32;;;;;;;9.32;89.07;101668.34;4877620;29;20209;-72
2023/04/20 07:59:41;;;;;;;21.30;16.92;;;;;;;9.39;88.16;101669.34;4878378;29;20234;-71
2023/04/20 08:02:10;;;;;;;17.40;14.20;;;;;;;9.06;89.93;101674.84;4876284;29;20201;-74
2023/04/20 08:04:43;;;;;;;18.00;15.13;;;;;;;9.22;90.26;101675.81;4880492;29;20569;-72
2023/04/20 08:07:12;;;;;;;21.38;14.10;;;;;;;9.10;88.71;101681.59;4877266;29;20204;-72
2023/04/20 08:09:42;;;;;;;25.80;14.82;;;;;;;9.00;88.37;101674.72;4880235;29;20255;-73
2023/04/20 08:12:11;;;;;;;18.35;14.63;;;;;;;8.97;89.61;101686.69;4880509;29;20215;-71
2023/04/20 08:14:41;;;;;;;18.80;14.82;;;;;;;9.21;89.41;101682.25;4882813;29;20220;-71
2023/04/20 08:17:10;;;;;;;18.25;13.50;;;;;;;9.33;88.66;101681.69;4886471;29;20239;-73
2023/04/20 08:19:40;;;;;;;20.02;15.10;;;;;;;9.39;88.40;101686.38;4880706;29;20631;-71
2023/04/20 08:22:13;;;;;;;23.23;15.90;;;;;;;9.92;86.01;101680.19;4883798;29;20199;-73
2023/04/20 08:24:43;;;;;;;17.52;13.75;;;;;;;10.36;83.59;101680.41;4879987;29;20192;-72
2023/04/20 08:27:12;;;;;;;17.70;13.00;;;;;;;10.29;83.13;101667.78;4884851;29;20621;-74
2023/04/20 08:29:41;;;;;;;17.30;13.50;;;;;;;10.53;82.77;101680.28;4882598;29;20461;-73
2023/04/20 08:32:11;;;;;;;17.30;12.97;;;;;;;10.38;82.59;101680.22;4879195;29;20949;-75
2023/04/20 08:34:42;;;;;;;16.90;12.93;;;;;;;10.01;83.67;101675.59;4880038;29;20786;-73
2023/04/20 08:37:11;;;;;;;20.05;12.63;;;;;;;9.58;84.15;101683.25;4878840;29;20671;-73
2023/04/20 08:39:40;;;;;;;17.00;12.18;;;;;;;9.25;86.16;101694.38;4877720;29;20635;-73
2023/04/20 08:42:09;;;;;;;19.95;13.13;;;;;;;9.07;87.34;101684.66;4879657;29;20210;-73
2023/04/20 08:44:38;;;;;;;17.48;13.90;;;;;;;8.94;89.15;101687.06;4878039;29;20208;-72
2023/04/20 08:47:10;;;;;;;19.13;15.07;;;;;;;9.15;89.18;101695.41;4879149;29;20639;-72
2023/04/20 08:49:41;;;;;;;19.83;14.75;;;;;;;9.30;88.77;101692.00;4876395;29;20222;-72
2023/04/20 08:52:12;;;;;;;15.52;11.85;;;;;;;9.25;90.39;101694.38;4894016;29;20184;-75
2023/04/20 08:54:41;;;;;;;19.10;13.55;;;;;;;9.27;89.13;101703.16;4901863;29;20204;-74
2023/04/20 08:57:24;;;;;;;17.40;13.68;;;;;;;8.97;90.35;101702.91;4893618;29;20196;-74
2023/04/20 08:59:53;;;;;;;21.10;15.35;;;;;;;8.84;91.66;101694.50;4882050;29;20213;-72
2023/04/20 09:02:23;;;;;;;19.95;15.80;;;;;;;8.84;92.59;101691.78;4876410;29;20773;-74
2023/04/20 09:05:04;;;;;;;24.33;13.60;;;;;;;8.76;94.13;101694.53;4881335;29;20199;-71
2023/04/20 09:07:33;;;;;;;20.25;14.18;;;;;;;8.64;95.52;101701.25;4874609;29;20231;-71
2023/04/20 09:10:02;;;;;;;19.23;13.98;;;;;;;8.48;96.02;101702.09;4876948;29;20770;-73
2023/04/20 09:12:42;;;;;;;24.02;15.20;;;;;;;8.36;96.84;101695.38;4879811;29;20224;-68
2023/04/20 09:15:23;;;;;;;21.42;14.75;;;;;;;8.17;98.83;101693.81;4879693;29;20202;-73
2023/04/20 09:17:54;;;;;;;22.65;17.27;;;;;;;8.19;99.18;101690.94;4886964;29;20218;-76
2023/04/20 09:20:33;;;;;;;19.90;15.30;;;;;;;8.18;100.00;101691.97;4892740;29;20304;-73
2023/04/20 09:23:12;;;;;;;18.27;14.15;;;;;;;8.14;100.00;101693.28;4885725;29;20240;-73
2023/04/20 09:25:42;;;;;;;22.90;16.10;;;;;;;8.20;100.00;101693.47;4879773;29;20559;-74
2023/04/20 09:28:12;;;;;;;23.63;18.05;;;;;;;8.15;100.00;101690.44;4883142;29;20200;-71
2023/04/20 09:30:42;;;;;;;21.40;16.75;;;;;;;8.37;100.00;101688.97;4882294;29;20196;-72
2023/04/20 09:33:13;;;;;;;28.35;19.63;;;;;;;8.51;100.00;101685.59;4877700;29;20199;-72
2023/04/20 09:35:45;;;;;;;24.88;18.60;;;;;;;8.54;100.00;101681.72;4880060;29;20282;-71
2023/04/20 09:38:17;;;;;;;33.80;25.52;;;;;;;8.56;100.00;101687.78;4879382;29;20600;-72
2023/04/20 09:40:46;;;;;;;21.13;16.92;;;;;;;8.69;100.00;101671.91;4879469;29;20242;-70
2023/04/20 09:43:20;;;;;;;25.45;17.45;;;;;;;8.93;100.00;101679.97;4879329;29;20196;-73
2023/04/20 09:45:49;;;;;;;40.72;29.60;;;;;;;9.38;100.00;101678.47;4882301;29;20249;-74
2023/04/20 09:48:20;;;;;;;21.55;19.00;;;;;;;9.43;97.25;101689.59;4879251;29;20365;-73
2023/04/20 09:50:51;;;;;;;25.95;19.92;;;;;;;9.55;96.71;101683.63;4878533;29;20715;-76
2023/04/20 09:53:20;;;;;;;17.30;13.27;;;;;;;9.83;94.10;101683.97;4876306;29;20197;-72
2023/04/20 09:55:50;;;;;;;21.27;16.35;;;;;;;9.65;94.70;101686.09;4876841;29;20298;-73
2023/04/20 09:58:20;;;;;;;21.15;16.95;;;;;;;9.64;97.23;101679.00;4876088;29;20212;-74
2023/04/20 10:00:50;;;;;;;20.48;15.23;;;;;;;9.97;94.14;101675.09;4876618;29;20732;-72
2023/04/20 10:03:20;;;;;;;20.90;16.73;;;;;;;10.12;92.49;101671.63;4875892;29;20301;-74
2023/04/20 10:05:54;;;;;;;18.48;15.75;;;;;;;9.76;92.75;101665.94;4880650;29;20459;-73
2023/04/20 10:08:24;;;;;;;23.73;18.95;;;;;;;9.87;92.64;101668.25;4875978;29;20205;-73
2023/04/20 10:10:53;;;;;;;25.13;16.08;;;;;;;10.06;91.81;101664.22;4879490;29;20203;-75
2023/04/20 10:13:34;;;;;;;20.33;15.70;;;;;;;10.16;90.29;101662.16;4880941;29;20204;-72
2023/04/20 10:16:03;;;;;;;20.52;14.13;;;;;;;10.35;90.11;101661.66;4878917;29;20412;-74
2023/04/20 10:18:32;;;;;;;17.85;12.05;;;;;;;10.57;86.69;101662.63;4882003;29;20217;-71
2023/04/20 10:21:10;;;;;;;26.83;20.80;;;;;;;10.41;87.59;101669.03;4881074;29;20276;-75
2023/04/20 10:23:49;;;;;;;16.38;12.85;;;;;;;10.45;87.97;101662.25;4916605;23;20599;-84
2023/04/20 10:26:26;;;;;;;18.60;13.83;;;;;;;10.73;87.59;101647.09;4909056;29;20379;-84
2023/04/20 10:29:09;;;;;;;12.43;11.20;;;;;;;10.99;84.94;101653.94;4885372;29;20459;-83
2023/04/20 10:31:49;;;;;;;13.03;11.00;;;;;;;11.05;84.12;101658.59;4900032;29;20544;-83
2023/04/20 10:34:35;;;;;;;13.57;10.73;;;;;;;10.80;85.63;101655.28;4885223;29;20466;-83
2023/04/20 10:37:17;;;;;;;15.90;12.50;;;;;;;11.41;82.37;101648.66;4878280;29;20450;-83
2023/04/20 10:40:05;;;;;;;17.20;13.27;;;;;;;11.84;81.48;101644.19;4885781;29;20470;-84
2023/04/20 10:42:51;;;;;;;15.63;11.90;;;;;;;11.89;80.81;101643.63;4884547;29;20855;-84
2023/04/20 10:45:42;;;;;;;12.73;10.80;;;;;;;11.80;79.43;101640.19;4909881;29;20482;-83
2023/04/20 10:51:35;;;;;;;14.17;12.43;;;;;;;12.05;79.47;101627.09;4877038;29;20861;-85
2023/04/20 10:54:11;;;;;;;19.90;14.40;;;;;;;12.46;77.63;101638.94;4898807;29;20444;-84
2023/04/20 10:56:47;;;;;;;31.83;26.00;;;;;;;12.27;78.08;101633.34;4888057;29;20472;-84
2023/04/20 10:59:22;;;;;;;15.40;12.00;;;;;;;12.33;77.74;101632.56;4889868;29;20455;-85
2023/04/20 11:01:55;;;;;;;13.77;11.83;;;;;;;12.77;75.83;101635.84;4902286;29;20444;-85
2023/04/20 11:05:17;;;;;;;13.90;11.10;;;;;;;12.66;74.81;101635.53;4918976;29;20472;-85
2023/04/20 11:07:53;;;;;;;18.73;13.83;;;;;;;12.43;76.72;101620.34;4903904;29;20426;-83
2023/04/20 11:10:37;;;;;;;15.67;13.63;;;;;;;12.56;75.40;101634.00;4902285;29;20505;-84
2023/04/20 11:13:19;;;;;;;18.03;12.60;;;;;;;13.03;75.48;101621.56;4899576;29;20448;-83
2023/04/20 11:16:18;;;;;;;19.93;13.10;;;;;;;13.00;74.85;101620.09;4927612;29;20430;-85
2023/04/20 11:21:49;;;;;;;15.67;13.60;;;;;;;12.18;78.86;101624.50;4901541;29;20471;-86
2023/04/20 11:24:20;;;;;;;19.43;14.73;;;;;;;12.41;79.08;101614.25;4915055;29;20435;-85
2023/04/20 11:26:53;;;;;;;18.43;14.20;;;;;;;12.66;78.11;101617.38;4909568;29;20434;-85
2023/04/20 11:29:36;;;;;;;13.90;12.40;;;;;;;12.47;78.65;101618.91;4897126;29;20445;-85
2023/04/20 11:32:08;;;;;;;15.67;13.70;;;;;;;12.30;79.58;101617.50;4899712;29;20418;-85
2023/04/20 11:34:41;;;;;;;16.40;13.53;;;;;;;12.40;79.91;101618.00;4918347;29;20508;-85
2023/04/20 11:37:21;;;;;;;17.10;13.90;;;;;;;12.57;78.94;101618.56;4914858;29;20466;-86
2023/04/20 11:40:03;;;;;;;18.10;15.60;;;;;;;12.44;80.36;101618.47;4888029;29;20490;-84
2023/04/20 11:42:39;;;;;;;16.53;13.80;;;;;;;12.66;79.29;101616.53;4901081;29;20453;-84